sensor_id;sensor_type;location;lat;lon;timestamp;P1;durP1;ratioP1;P2;durP2;ratioP2
9447;SDS011;4762;48.128;11.376;2023-05-13T00:01:44;4.57;;;2.57;;
9447;SDS011;4762;48.128;11.376;2023-05-13T00:03:46;4.40;;;3.30;;
9447;SDS011;4762;48.128;11.376;2023-05-13T00:05:48;2.40;;;2.17;;
9447;SDS011;4762;48.128;11.376;2023-05-13T00:07:50;4.40;;;2.43;;
9447;SDS011;4762;48.128;11.376;2023-05-13T00:09:52;3.37;;;2.57;;
9447;SDS011;4762;48.128;11.376;2023-05-13T00:11:55;6.00;;;2.90;;
9447;SDS011;4762;48.128;11.376;2023-05-13T00:13:57;3.80;;;2.60;;
9447;SDS011;4762;48.128;11.376;2023-05-13T00:15:59;4.17;;;2.60;;
9447;SDS011;4762;48.128;11.376;2023-05-13T00:18:02;3.63;;;2.70;;
9447;SDS011;4762;48.128;11.376;2023-05-13T00:20:06;3.63;;;2.30;;
9447;SDS011;4762;48.128;11.376;2023-05-13T00:22:09;4.33;;;2.80;;
9447;SDS011;4762;48.128;11.376;2023-05-13T00:24:11;3.90;;;2.60;;
9447;SDS011;4762;48.128;11.376;2023-05-13T00:26:13;4.03;;;2.80;;
9447;SDS011;4762;48.128;11.376;2023-05-13T00:28:17;4.07;;;2.80;;
9447;SDS011;4762;48.128;11.376;2023-05-13T00:30:19;4.87;;;2.90;;
9447;SDS011;4762;48.128;11.376;2023-05-13T00:32:21;3.93;;;2.60;;
9447;SDS011;4762;48.128;11.376;2023-05-13T00:34:23;5.10;;;2.77;;
9447;SDS011;4762;48.128;11.376;2023-05-13T00:36:26;4.13;;;2.83;;
9447;SDS011;4762;48.128;11.376;2023-05-13T00:38:28;5.13;;;2.93;;
9447;SDS011;4762;48.128;11.376;2023-05-13T00:40:30;6.20;;;3.10;;
9447;SDS011;4762;48.128;11.376;2023-05-13T00:42:32;5.93;;;3.57;;
9447;SDS011;4762;48.128;11.376;2023-05-13T00:44:34;2.47;;;1.90;;
9447;SDS011;4762;48.128;11.376;2023-05-13T00:46:37;4.33;;;2.93;;
9447;SDS011;4762;48.128;11.376;2023-05-13T00:48:39;3.83;;;2.63;;
9447;SDS011;4762;48.128;11.376;2023-05-13T00:50:42;3.83;;;2.40;;
9447;SDS011;4762;48.128;11.376;2023-05-13T00:52:44;4.70;;;3.10;;
9447;SDS011;4762;48.128;11.376;2023-05-13T00:54:46;3.53;;;2.93;;
9447;SDS011;4762;48.128;11.376;2023-05-13T00:56:48;7.37;;;3.30;;
9447;SDS011;4762;48.128;11.376;2023-05-13T00:58:51;4.17;;;2.90;;
9447;SDS011;4762;48.128;11.376;2023-05-13T01:00:58;7.00;;;3.73;;
9447;SDS011;4762;48.128;11.376;2023-05-13T01:03:04;12.63;;;4.23;;
9447;SDS011;4762;48.128;11.376;2023-05-13T01:05:15;4.90;;;3.30;;
9447;SDS011;4762;48.128;11.376;2023-05-13T01:07:23;4.03;;;2.63;;
9447;SDS011;4762;48.128;11.376;2023-05-13T01:11:50;5.83;;;3.70;;
9447;SDS011;4762;48.128;11.376;2023-05-13T01:13:56;6.50;;;3.40;;
9447;SDS011;4762;48.128;11.376;2023-05-13T01:16:00;8.33;;;3.90;;
9447;SDS011;4762;48.128;11.376;2023-05-13T01:18:06;6.13;;;3.80;;
9447;SDS011;4762;48.128;11.376;2023-05-13T01:20:07;5.20;;;3.17;;
9447;SDS011;4762;48.128;11.376;2023-05-13T01:22:09;4.63;;;3.60;;
9447;SDS011;4762;48.128;11.376;2023-05-13T01:24:12;7.57;;;4.30;;
9447;SDS011;4762;48.128;11.376;2023-05-13T01:26:14;5.63;;;2.97;;
9447;SDS011;4762;48.128;11.376;2023-05-13T01:28:16;8.63;;;3.23;;
9447;SDS011;4762;48.128;11.376;2023-05-13T01:30:19;5.23;;;3.40;;
9447;SDS011;4762;48.128;11.376;2023-05-13T01:32:21;5.20;;;3.93;;
9447;SDS011;4762;48.128;11.376;2023-05-13T01:34:23;5.70;;;4.30;;
9447;SDS011;4762;48.128;11.376;2023-05-13T01:36:25;4.73;;;3.20;;
9447;SDS011;4762;48.128;11.376;2023-05-13T01:38:28;5.93;;;4.47;;
9447;SDS011;4762;48.128;11.376;2023-05-13T01:40:30;5.90;;;3.90;;
9447;SDS011;4762;48.128;11.376;2023-05-13T01:42:32;6.30;;;4.30;;
9447;SDS011;4762;48.128;11.376;2023-05-13T01:44:35;8.13;;;4.33;;
9447;SDS011;4762;48.128;11.376;2023-05-13T01:46:38;5.97;;;4.50;;
9447;SDS011;4762;48.128;11.376;2023-05-13T01:48:40;6.10;;;4.30;;
9447;SDS011;4762;48.128;11.376;2023-05-13T01:50:43;6.63;;;4.50;;
9447;SDS011;4762;48.128;11.376;2023-05-13T01:52:45;6.07;;;4.37;;
9447;SDS011;4762;48.128;11.376;2023-05-13T01:54:47;6.43;;;4.43;;
9447;SDS011;4762;48.128;11.376;2023-05-13T01:56:49;7.30;;;4.80;;
9447;SDS011;4762;48.128;11.376;2023-05-13T01:58:51;5.80;;;3.70;;
9447;SDS011;4762;48.128;11.376;2023-05-13T02:00:54;7.07;;;4.60;;
9447;SDS011;4762;48.128;11.376;2023-05-13T02:02:56;9.93;;;4.80;;
9447;SDS011;4762;48.128;11.376;2023-05-13T02:04:58;7.93;;;4.37;;
9447;SDS011;4762;48.128;11.376;2023-05-13T02:07:00;7.53;;;4.60;;
9447;SDS011;4762;48.128;11.376;2023-05-13T02:09:02;8.30;;;4.90;;
9447;SDS011;4762;48.128;11.376;2023-05-13T02:11:05;6.40;;;4.33;;
9447;SDS011;4762;48.128;11.376;2023-05-13T02:13:07;8.70;;;4.20;;
9447;SDS011;4762;48.128;11.376;2023-05-13T02:15:09;5.83;;;4.37;;
9447;SDS011;4762;48.128;11.376;2023-05-13T02:17:12;7.70;;;3.97;;
9447;SDS011;4762;48.128;11.376;2023-05-13T02:19:14;7.13;;;4.70;;
9447;SDS011;4762;48.128;11.376;2023-05-13T02:21:16;6.37;;;4.73;;
9447;SDS011;4762;48.128;11.376;2023-05-13T02:23:18;5.53;;;4.23;;
9447;SDS011;4762;48.128;11.376;2023-05-13T02:25:20;8.80;;;5.10;;
9447;SDS011;4762;48.128;11.376;2023-05-13T02:27:23;5.80;;;4.10;;
9447;SDS011;4762;48.128;11.376;2023-05-13T02:29:25;5.60;;;3.87;;
9447;SDS011;4762;48.128;11.376;2023-05-13T02:31:27;7.17;;;4.50;;
9447;SDS011;4762;48.128;11.376;2023-05-13T02:33:29;4.97;;;3.90;;
9447;SDS011;4762;48.128;11.376;2023-05-13T02:35:32;5.97;;;4.00;;
9447;SDS011;4762;48.128;11.376;2023-05-13T02:37:34;5.60;;;4.87;;
9447;SDS011;4762;48.128;11.376;2023-05-13T02:39:36;9.20;;;4.47;;
9447;SDS011;4762;48.128;11.376;2023-05-13T02:41:38;6.50;;;4.80;;
9447;SDS011;4762;48.128;11.376;2023-05-13T02:43:40;8.60;;;4.63;;
9447;SDS011;4762;48.128;11.376;2023-05-13T02:45:43;8.43;;;4.60;;
9447;SDS011;4762;48.128;11.376;2023-05-13T02:47:45;8.30;;;5.87;;
9447;SDS011;4762;48.128;11.376;2023-05-13T02:49:47;7.27;;;4.50;;
9447;SDS011;4762;48.128;11.376;2023-05-13T02:51:49;12.93;;;5.63;;
9447;SDS011;4762;48.128;11.376;2023-05-13T02:53:51;5.47;;;4.00;;
9447;SDS011;4762;48.128;11.376;2023-05-13T02:55:54;8.33;;;5.00;;
9447;SDS011;4762;48.128;11.376;2023-05-13T02:57:56;7.80;;;5.57;;
9447;SDS011;4762;48.128;11.376;2023-05-13T02:59:58;11.63;;;4.40;;
9447;SDS011;4762;48.128;11.376;2023-05-13T03:02:00;12.97;;;5.47;;
9447;SDS011;4762;48.128;11.376;2023-05-13T03:04:03;6.93;;;4.20;;
9447;SDS011;4762;48.128;11.376;2023-05-13T03:06:05;7.50;;;3.90;;
9447;SDS011;4762;48.128;11.376;2023-05-13T03:08:08;15.83;;;4.50;;
9447;SDS011;4762;48.128;11.376;2023-05-13T03:10:10;7.17;;;5.47;;
9447;SDS011;4762;48.128;11.376;2023-05-13T03:12:12;6.70;;;5.20;;
9447;SDS011;4762;48.128;11.376;2023-05-13T03:14:14;8.37;;;5.10;;
9447;SDS011;4762;48.128;11.376;2023-05-13T03:16:17;8.10;;;5.50;;
9447;SDS011;4762;48.128;11.376;2023-05-13T03:18:19;7.63;;;5.77;;
9447;SDS011;4762;48.128;11.376;2023-05-13T03:20:22;7.73;;;5.30;;
9447;SDS011;4762;48.128;11.376;2023-05-13T03:22:24;6.53;;;4.80;;
9447;SDS011;4762;48.128;11.376;2023-05-13T03:24:26;8.20;;;4.37;;
9447;SDS011;4762;48.128;11.376;2023-05-13T03:26:28;8.77;;;4.23;;
9447;SDS011;4762;48.128;11.376;2023-05-13T03:28:31;14.57;;;5.07;;
9447;SDS011;4762;48.128;11.376;2023-05-13T03:30:35;9.10;;;5.97;;
9447;SDS011;4762;48.128;11.376;2023-05-13T03:32:39;6.83;;;4.60;;
9447;SDS011;4762;48.128;11.376;2023-05-13T03:34:41;9.50;;;4.90;;
9447;SDS011;4762;48.128;11.376;2023-05-13T03:36:43;19.10;;;6.07;;
9447;SDS011;4762;48.128;11.376;2023-05-13T03:38:46;8.80;;;5.40;;
9447;SDS011;4762;48.128;11.376;2023-05-13T03:40:48;9.40;;;5.63;;
9447;SDS011;4762;48.128;11.376;2023-05-13T03:42:50;7.20;;;4.90;;
9447;SDS011;4762;48.128;11.376;2023-05-13T03:44:52;9.43;;;5.70;;
9447;SDS011;4762;48.128;11.376;2023-05-13T03:46:55;16.13;;;8.00;;
9447;SDS011;4762;48.128;11.376;2023-05-13T03:48:57;14.33;;;5.67;;
9447;SDS011;4762;48.128;11.376;2023-05-13T03:51:00;11.77;;;5.73;;
9447;SDS011;4762;48.128;11.376;2023-05-13T03:53:02;11.23;;;5.80;;
9447;SDS011;4762;48.128;11.376;2023-05-13T03:55:05;8.40;;;5.77;;
9447;SDS011;4762;48.128;11.376;2023-05-13T03:57:08;6.57;;;5.47;;
9447;SDS011;4762;48.128;11.376;2023-05-13T03:59:10;9.23;;;6.60;;
9447;SDS011;4762;48.128;11.376;2023-05-13T04:01:13;14.23;;;7.27;;
9447;SDS011;4762;48.128;11.376;2023-05-13T04:03:15;7.90;;;5.23;;
9447;SDS011;4762;48.128;11.376;2023-05-13T04:05:18;6.27;;;5.10;;
9447;SDS011;4762;48.128;11.376;2023-05-13T04:07:20;8.20;;;5.77;;
9447;SDS011;4762;48.128;11.376;2023-05-13T04:09:22;9.30;;;5.00;;
9447;SDS011;4762;48.128;11.376;2023-05-13T04:11:24;6.70;;;4.70;;
9447;SDS011;4762;48.128;11.376;2023-05-13T04:13:27;13.10;;;5.73;;
9447;SDS011;4762;48.128;11.376;2023-05-13T04:15:29;7.03;;;5.17;;
9447;SDS011;4762;48.128;11.376;2023-05-13T04:17:32;9.30;;;6.00;;
9447;SDS011;4762;48.128;11.376;2023-05-13T04:19:34;8.20;;;5.80;;
9447;SDS011;4762;48.128;11.376;2023-05-13T04:21:37;9.63;;;6.17;;
9447;SDS011;4762;48.128;11.376;2023-05-13T04:23:39;8.20;;;5.03;;
9447;SDS011;4762;48.128;11.376;2023-05-13T04:25:42;8.53;;;5.13;;
9447;SDS011;4762;48.128;11.376;2023-05-13T04:27:44;13.93;;;6.30;;
9447;SDS011;4762;48.128;11.376;2023-05-13T04:29:47;7.60;;;5.63;;
9447;SDS011;4762;48.128;11.376;2023-05-13T04:31:50;6.20;;;4.47;;
9447;SDS011;4762;48.128;11.376;2023-05-13T04:33:52;8.63;;;5.83;;
9447;SDS011;4762;48.128;11.376;2023-05-13T04:35:54;6.93;;;5.07;;
9447;SDS011;4762;48.128;11.376;2023-05-13T04:37:56;9.13;;;5.47;;
9447;SDS011;4762;48.128;11.376;2023-05-13T04:39:59;9.73;;;5.23;;
9447;SDS011;4762;48.128;11.376;2023-05-13T04:42:01;6.27;;;4.67;;
9447;SDS011;4762;48.128;11.376;2023-05-13T04:46:24;8.07;;;5.93;;
9447;SDS011;4762;48.128;11.376;2023-05-13T04:48:27;7.70;;;5.57;;
9447;SDS011;4762;48.128;11.376;2023-05-13T04:50:29;6.00;;;5.20;;
9447;SDS011;4762;48.128;11.376;2023-05-13T04:52:32;7.17;;;5.53;;
9447;SDS011;4762;48.128;11.376;2023-05-13T04:54:34;10.50;;;5.90;;
9447;SDS011;4762;48.128;11.376;2023-05-13T04:56:36;12.90;;;6.57;;
9447;SDS011;4762;48.128;11.376;2023-05-13T04:58:38;5.50;;;4.87;;
9447;SDS011;4762;48.128;11.376;2023-05-13T05:00:41;9.80;;;5.33;;
9447;SDS011;4762;48.128;11.376;2023-05-13T05:02:43;10.30;;;6.50;;
9447;SDS011;4762;48.128;11.376;2023-05-13T05:04:45;12.10;;;6.90;;
9447;SDS011;4762;48.128;11.376;2023-05-13T05:06:47;9.60;;;5.73;;
9447;SDS011;4762;48.128;11.376;2023-05-13T05:08:50;9.30;;;6.87;;
9447;SDS011;4762;48.128;11.376;2023-05-13T05:10:52;7.80;;;5.60;;
9447;SDS011;4762;48.128;11.376;2023-05-13T05:12:54;10.97;;;5.57;;
9447;SDS011;4762;48.128;11.376;2023-05-13T05:14:56;5.80;;;4.77;;
9447;SDS011;4762;48.128;11.376;2023-05-13T05:16:58;15.30;;;5.30;;
9447;SDS011;4762;48.128;11.376;2023-05-13T05:19:01;8.07;;;6.27;;
9447;SDS011;4762;48.128;11.376;2023-05-13T05:21:07;10.80;;;5.13;;
9447;SDS011;4762;48.128;11.376;2023-05-13T05:23:10;11.00;;;6.77;;
9447;SDS011;4762;48.128;11.376;2023-05-13T05:25:12;15.43;;;5.90;;
9447;SDS011;4762;48.128;11.376;2023-05-13T05:27:14;8.30;;;5.30;;
9447;SDS011;4762;48.128;11.376;2023-05-13T05:29:17;6.37;;;4.93;;
9447;SDS011;4762;48.128;11.376;2023-05-13T05:31:20;10.20;;;5.10;;
9447;SDS011;4762;48.128;11.376;2023-05-13T05:33:22;13.57;;;6.20;;
9447;SDS011;4762;48.128;11.376;2023-05-13T05:35:25;9.80;;;5.53;;
9447;SDS011;4762;48.128;11.376;2023-05-13T05:37:27;8.53;;;5.20;;
9447;SDS011;4762;48.128;11.376;2023-05-13T05:39:30;12.23;;;6.30;;
9447;SDS011;4762;48.128;11.376;2023-05-13T05:41:33;9.70;;;4.73;;
9447;SDS011;4762;48.128;11.376;2023-05-13T05:43:35;5.27;;;4.40;;
9447;SDS011;4762;48.128;11.376;2023-05-13T05:45:37;10.27;;;5.90;;
9447;SDS011;4762;48.128;11.376;2023-05-13T05:47:40;11.13;;;5.33;;
9447;SDS011;4762;48.128;11.376;2023-05-13T05:49:42;7.90;;;4.93;;
9447;SDS011;4762;48.128;11.376;2023-05-13T05:51:46;7.97;;;5.37;;
9447;SDS011;4762;48.128;11.376;2023-05-13T05:53:51;15.13;;;5.60;;
9447;SDS011;4762;48.128;11.376;2023-05-13T05:55:54;7.03;;;5.03;;
9447;SDS011;4762;48.128;11.376;2023-05-13T05:57:56;6.37;;;4.50;;
9447;SDS011;4762;48.128;11.376;2023-05-13T05:59:59;13.43;;;4.73;;
9447;SDS011;4762;48.128;11.376;2023-05-13T06:02:01;7.00;;;5.10;;
9447;SDS011;4762;48.128;11.376;2023-05-13T06:04:04;6.57;;;5.63;;
9447;SDS011;4762;48.128;11.376;2023-05-13T06:06:06;7.73;;;5.40;;
9447;SDS011;4762;48.128;11.376;2023-05-13T06:08:09;6.30;;;4.93;;
9447;SDS011;4762;48.128;11.376;2023-05-13T06:10:12;7.10;;;5.33;;
9447;SDS011;4762;48.128;11.376;2023-05-13T06:12:14;7.97;;;5.67;;
9447;SDS011;4762;48.128;11.376;2023-05-13T06:14:17;10.27;;;5.30;;
9447;SDS011;4762;48.128;11.376;2023-05-13T06:16:19;6.57;;;4.97;;
9447;SDS011;4762;48.128;11.376;2023-05-13T06:18:21;7.63;;;5.63;;
9447;SDS011;4762;48.128;11.376;2023-05-13T06:20:24;8.60;;;5.40;;
9447;SDS011;4762;48.128;11.376;2023-05-13T06:22:26;7.10;;;5.87;;
9447;SDS011;4762;48.128;11.376;2023-05-13T06:24:29;5.57;;;5.03;;
9447;SDS011;4762;48.128;11.376;2023-05-13T06:26:31;11.70;;;6.17;;
9447;SDS011;4762;48.128;11.376;2023-05-13T06:28:33;8.60;;;6.00;;
9447;SDS011;4762;48.128;11.376;2023-05-13T06:30:35;8.47;;;5.67;;
9447;SDS011;4762;48.128;11.376;2023-05-13T06:32:38;11.07;;;5.03;;
9447;SDS011;4762;48.128;11.376;2023-05-13T06:34:41;6.70;;;5.30;;
9447;SDS011;4762;48.128;11.376;2023-05-13T06:36:43;7.27;;;5.00;;
9447;SDS011;4762;48.128;11.376;2023-05-13T06:38:45;7.73;;;5.23;;
9447;SDS011;4762;48.128;11.376;2023-05-13T06:40:48;11.33;;;5.40;;
9447;SDS011;4762;48.128;11.376;2023-05-13T06:42:50;7.97;;;5.63;;
9447;SDS011;4762;48.128;11.376;2023-05-13T06:44:52;9.20;;;5.13;;
9447;SDS011;4762;48.128;11.376;2023-05-13T06:46:54;8.60;;;6.00;;
9447;SDS011;4762;48.128;11.376;2023-05-13T06:48:57;6.43;;;5.00;;
9447;SDS011;4762;48.128;11.376;2023-05-13T06:51:02;8.53;;;5.10;;
9447;SDS011;4762;48.128;11.376;2023-05-13T06:53:07;4.53;;;3.93;;
9447;SDS011;4762;48.128;11.376;2023-05-13T06:55:12;7.57;;;4.93;;
9447;SDS011;4762;48.128;11.376;2023-05-13T06:57:14;7.67;;;5.23;;
9447;SDS011;4762;48.128;11.376;2023-05-13T06:59:16;6.23;;;4.07;;
9447;SDS011;4762;48.128;11.376;2023-05-13T07:01:19;5.07;;;4.03;;
9447;SDS011;4762;48.128;11.376;2023-05-13T07:03:27;7.00;;;4.50;;
9447;SDS011;4762;48.128;11.376;2023-05-13T07:05:30;6.47;;;4.87;;
9447;SDS011;4762;48.128;11.376;2023-05-13T07:07:32;8.20;;;3.73;;
9447;SDS011;4762;48.128;11.376;2023-05-13T07:09:34;7.60;;;5.07;;
9447;SDS011;4762;48.128;11.376;2023-05-13T07:11:38;6.30;;;4.57;;
9447;SDS011;4762;48.128;11.376;2023-05-13T07:13:45;8.53;;;3.67;;
9447;SDS011;4762;48.128;11.376;2023-05-13T07:15:47;6.17;;;4.57;;
9447;SDS011;4762;48.128;11.376;2023-05-13T07:17:52;7.97;;;4.10;;
9447;SDS011;4762;48.128;11.376;2023-05-13T07:19:54;4.23;;;3.70;;
9447;SDS011;4762;48.128;11.376;2023-05-13T07:21:56;6.10;;;3.87;;
9447;SDS011;4762;48.128;11.376;2023-05-13T07:28:46;9.80;;;5.63;;
9447;SDS011;4762;48.128;11.376;2023-05-13T07:30:49;8.83;;;4.83;;
9447;SDS011;4762;48.128;11.376;2023-05-13T07:32:52;10.20;;;4.23;;
9447;SDS011;4762;48.128;11.376;2023-05-13T07:34:54;5.83;;;4.20;;
9447;SDS011;4762;48.128;11.376;2023-05-13T07:36:56;6.67;;;4.07;;
9447;SDS011;4762;48.128;11.376;2023-05-13T07:38:58;4.57;;;3.00;;
9447;SDS011;4762;48.128;11.376;2023-05-13T07:41:01;6.30;;;3.40;;
9447;SDS011;4762;48.128;11.376;2023-05-13T07:43:03;5.40;;;3.57;;
9447;SDS011;4762;48.128;11.376;2023-05-13T07:45:06;6.77;;;4.30;;
9447;SDS011;4762;48.128;11.376;2023-05-13T07:47:09;4.87;;;3.70;;
9447;SDS011;4762;48.128;11.376;2023-05-13T07:49:12;6.63;;;4.07;;
9447;SDS011;4762;48.128;11.376;2023-05-13T07:51:18;6.00;;;3.80;;
9447;SDS011;4762;48.128;11.376;2023-05-13T07:53:20;6.67;;;4.17;;
9447;SDS011;4762;48.128;11.376;2023-05-13T07:55:22;4.53;;;3.90;;
9447;SDS011;4762;48.128;11.376;2023-05-13T07:57:25;7.33;;;5.00;;
9447;SDS011;4762;48.128;11.376;2023-05-13T07:59:27;9.83;;;4.13;;
9447;SDS011;4762;48.128;11.376;2023-05-13T08:01:30;11.37;;;3.50;;
9447;SDS011;4762;48.128;11.376;2023-05-13T08:03:32;4.70;;;3.80;;
9447;SDS011;4762;48.128;11.376;2023-05-13T08:05:35;7.10;;;4.70;;
9447;SDS011;4762;48.128;11.376;2023-05-13T08:07:37;7.80;;;2.83;;
9447;SDS011;4762;48.128;11.376;2023-05-13T08:09:40;5.70;;;3.63;;
9447;SDS011;4762;48.128;11.376;2023-05-13T08:11:42;5.40;;;3.93;;
9447;SDS011;4762;48.128;11.376;2023-05-13T08:13:47;9.43;;;4.83;;
9447;SDS011;4762;48.128;11.376;2023-05-13T08:15:49;4.93;;;3.70;;
9447;SDS011;4762;48.128;11.376;2023-05-13T08:17:51;6.03;;;4.50;;
9447;SDS011;4762;48.128;11.376;2023-05-13T08:19:53;6.63;;;3.97;;
9447;SDS011;4762;48.128;11.376;2023-05-13T08:21:55;5.00;;;4.20;;
9447;SDS011;4762;48.128;11.376;2023-05-13T08:23:58;4.87;;;3.40;;
9447;SDS011;4762;48.128;11.376;2023-05-13T08:26:00;9.53;;;4.87;;
9447;SDS011;4762;48.128;11.376;2023-05-13T08:28:02;9.63;;;4.80;;
9447;SDS011;4762;48.128;11.376;2023-05-13T08:30:05;5.73;;;3.80;;
9447;SDS011;4762;48.128;11.376;2023-05-13T08:32:08;9.00;;;4.67;;
9447;SDS011;4762;48.128;11.376;2023-05-13T08:34:10;8.03;;;3.77;;
9447;SDS011;4762;48.128;11.376;2023-05-13T08:36:12;8.50;;;4.10;;
9447;SDS011;4762;48.128;11.376;2023-05-13T08:38:15;11.30;;;4.47;;
9447;SDS011;4762;48.128;11.376;2023-05-13T08:40:17;8.23;;;6.50;;
9447;SDS011;4762;48.128;11.376;2023-05-13T08:42:19;10.60;;;4.90;;
9447;SDS011;4762;48.128;11.376;2023-05-13T08:44:22;9.13;;;4.77;;
9447;SDS011;4762;48.128;11.376;2023-05-13T08:46:24;8.27;;;5.30;;
9447;SDS011;4762;48.128;11.376;2023-05-13T08:48:26;6.60;;;4.57;;
9447;SDS011;4762;48.128;11.376;2023-05-13T08:50:30;8.23;;;4.37;;
9447;SDS011;4762;48.128;11.376;2023-05-13T08:52:34;10.97;;;5.70;;
9447;SDS011;4762;48.128;11.376;2023-05-13T08:54:36;7.20;;;5.03;;
9447;SDS011;4762;48.128;11.376;2023-05-13T08:56:38;7.37;;;5.47;;
9447;SDS011;4762;48.128;11.376;2023-05-13T08:58:41;9.23;;;5.40;;
9447;SDS011;4762;48.128;11.376;2023-05-13T09:00:45;8.90;;;6.13;;
9447;SDS011;4762;48.128;11.376;2023-05-13T09:02:48;6.23;;;4.00;;
9447;SDS011;4762;48.128;11.376;2023-05-13T09:04:51;8.33;;;5.23;;
9447;SDS011;4762;48.128;11.376;2023-05-13T09:06:52;9.13;;;5.10;;
9447;SDS011;4762;48.128;11.376;2023-05-13T09:08:55;12.30;;;5.20;;
9447;SDS011;4762;48.128;11.376;2023-05-13T09:10:57;7.60;;;4.60;;
9447;SDS011;4762;48.128;11.376;2023-05-13T09:12:59;7.53;;;4.50;;
9447;SDS011;4762;48.128;11.376;2023-05-13T09:15:01;7.40;;;4.93;;
9447;SDS011;4762;48.128;11.376;2023-05-13T09:17:04;8.07;;;5.20;;
9447;SDS011;4762;48.128;11.376;2023-05-13T09:19:06;11.83;;;4.80;;
9447;SDS011;4762;48.128;11.376;2023-05-13T09:23:23;7.10;;;4.13;;
9447;SDS011;4762;48.128;11.376;2023-05-13T09:25:25;5.90;;;3.90;;
9447;SDS011;4762;48.128;11.376;2023-05-13T09:29:37;7.37;;;4.20;;
9447;SDS011;4762;48.128;11.376;2023-05-13T09:31:39;6.13;;;4.43;;
9447;SDS011;4762;48.128;11.376;2023-05-13T09:33:50;7.17;;;4.00;;
9447;SDS011;4762;48.128;11.376;2023-05-13T09:35:47;5.80;;;3.90;;
9447;SDS011;4762;48.128;11.376;2023-05-13T09:37:47;4.77;;;3.40;;
9447;SDS011;4762;48.128;11.376;2023-05-13T09:39:49;3.00;;;2.53;;
9447;SDS011;4762;48.128;11.376;2023-05-13T09:41:51;4.87;;;3.47;;
9447;SDS011;4762;48.128;11.376;2023-05-13T09:43:53;4.17;;;3.30;;
9447;SDS011;4762;48.128;11.376;2023-05-13T09:45:57;7.00;;;3.50;;
9447;SDS011;4762;48.128;11.376;2023-05-13T09:47:58;4.63;;;3.33;;
9447;SDS011;4762;48.128;11.376;2023-05-13T09:50:00;5.00;;;3.50;;
9447;SDS011;4762;48.128;11.376;2023-05-13T09:52:03;5.43;;;4.07;;
9447;SDS011;4762;48.128;11.376;2023-05-13T09:54:06;5.37;;;3.77;;
9447;SDS011;4762;48.128;11.376;2023-05-13T09:56:08;6.87;;;4.37;;
9447;SDS011;4762;48.128;11.376;2023-05-13T09:58:10;5.70;;;3.93;;
9447;SDS011;4762;48.128;11.376;2023-05-13T10:00:13;6.90;;;4.57;;
9447;SDS011;4762;48.128;11.376;2023-05-13T10:02:15;4.57;;;3.10;;
9447;SDS011;4762;48.128;11.376;2023-05-13T10:04:17;6.23;;;3.77;;
9447;SDS011;4762;48.128;11.376;2023-05-13T10:06:19;8.83;;;4.23;;
9447;SDS011;4762;48.128;11.376;2023-05-13T10:08:22;8.53;;;3.83;;
9447;SDS011;4762;48.128;11.376;2023-05-13T10:10:25;7.03;;;3.87;;
9447;SDS011;4762;48.128;11.376;2023-05-13T10:12:29;11.23;;;3.87;;
9447;SDS011;4762;48.128;11.376;2023-05-13T10:14:30;6.33;;;3.80;;
9447;SDS011;4762;48.128;11.376;2023-05-13T10:16:33;7.43;;;3.80;;
9447;SDS011;4762;48.128;11.376;2023-05-13T10:18:35;5.70;;;3.20;;
9447;SDS011;4762;48.128;11.376;2023-05-13T10:20:37;4.67;;;3.13;;
9447;SDS011;4762;48.128;11.376;2023-05-13T10:22:40;6.23;;;3.50;;
9447;SDS011;4762;48.128;11.376;2023-05-13T10:24:42;4.83;;;3.43;;
9447;SDS011;4762;48.128;11.376;2023-05-13T10:26:44;9.33;;;4.03;;
9447;SDS011;4762;48.128;11.376;2023-05-13T10:28:48;4.87;;;3.60;;
9447;SDS011;4762;48.128;11.376;2023-05-13T10:30:50;5.83;;;2.90;;
9447;SDS011;4762;48.128;11.376;2023-05-13T10:32:53;4.03;;;2.50;;
9447;SDS011;4762;48.128;11.376;2023-05-13T10:34:58;5.37;;;3.30;;
9447;SDS011;4762;48.128;11.376;2023-05-13T10:37:03;8.43;;;3.73;;
9447;SDS011;4762;48.128;11.376;2023-05-13T10:39:25;4.57;;;3.27;;
9447;SDS011;4762;48.128;11.376;2023-05-13T10:41:33;3.73;;;2.90;;
9447;SDS011;4762;48.128;11.376;2023-05-13T10:43:36;7.40;;;2.70;;
9447;SDS011;4762;48.128;11.376;2023-05-13T10:45:39;4.13;;;2.77;;
9447;SDS011;4762;48.128;11.376;2023-05-13T10:47:41;4.30;;;3.03;;
9447;SDS011;4762;48.128;11.376;2023-05-13T10:49:48;5.10;;;3.60;;
9447;SDS011;4762;48.128;11.376;2023-05-13T10:51:46;5.20;;;3.33;;
9447;SDS011;4762;48.128;11.376;2023-05-13T10:53:51;3.97;;;3.23;;
9447;SDS011;4762;48.128;11.376;2023-05-13T10:55:54;6.00;;;3.20;;
9447;SDS011;4762;48.128;11.376;2023-05-13T10:58:10;6.23;;;3.63;;
9447;SDS011;4762;48.128;11.376;2023-05-13T11:00:13;4.80;;;3.30;;
9447;SDS011;4762;48.128;11.376;2023-05-13T11:02:20;4.10;;;3.20;;
9447;SDS011;4762;48.128;11.376;2023-05-13T11:04:22;6.87;;;3.40;;
9447;SDS011;4762;48.128;11.376;2023-05-13T11:06:29;5.13;;;3.10;;
9447;SDS011;4762;48.128;11.376;2023-05-13T11:08:37;4.50;;;3.00;;
9447;SDS011;4762;48.128;11.376;2023-05-13T11:10:39;3.43;;;2.33;;
9447;SDS011;4762;48.128;11.376;2023-05-13T11:12:43;5.37;;;3.30;;
9447;SDS011;4762;48.128;11.376;2023-05-13T11:14:44;3.73;;;2.63;;
9447;SDS011;4762;48.128;11.376;2023-05-13T11:19:17;3.13;;;2.20;;
9447;SDS011;4762;48.128;11.376;2023-05-13T11:23:33;4.10;;;2.00;;
9447;SDS011;4762;48.128;11.376;2023-05-13T11:25:35;4.33;;;2.03;;
9447;SDS011;4762;48.128;11.376;2023-05-13T11:27:38;3.20;;;2.17;;
9447;SDS011;4762;48.128;11.376;2023-05-13T11:29:47;3.23;;;2.57;;
9447;SDS011;4762;48.128;11.376;2023-05-13T11:31:49;3.57;;;2.47;;
9447;SDS011;4762;48.128;11.376;2023-05-13T11:38:20;6.10;;;2.87;;
9447;SDS011;4762;48.128;11.376;2023-05-13T11:40:23;3.30;;;2.37;;
9447;SDS011;4762;48.128;11.376;2023-05-13T11:42:25;3.27;;;2.40;;
9447;SDS011;4762;48.128;11.376;2023-05-13T11:44:27;3.73;;;2.43;;
9447;SDS011;4762;48.128;11.376;2023-05-13T11:46:29;12.70;;;2.23;;
9447;SDS011;4762;48.128;11.376;2023-05-13T11:48:32;4.13;;;2.57;;
9447;SDS011;4762;48.128;11.376;2023-05-13T11:50:34;4.70;;;2.80;;
9447;SDS011;4762;48.128;11.376;2023-05-13T11:52:36;2.23;;;1.60;;
9447;SDS011;4762;48.128;11.376;2023-05-13T11:54:41;3.07;;;1.93;;
9447;SDS011;4762;48.128;11.376;2023-05-13T11:56:44;3.67;;;2.23;;
9447;SDS011;4762;48.128;11.376;2023-05-13T11:58:47;4.00;;;2.57;;
9447;SDS011;4762;48.128;11.376;2023-05-13T12:00:50;2.50;;;1.90;;
9447;SDS011;4762;48.128;11.376;2023-05-13T12:02:52;6.43;;;2.97;;
9447;SDS011;4762;48.128;11.376;2023-05-13T12:04:55;4.87;;;2.50;;
9447;SDS011;4762;48.128;11.376;2023-05-13T12:06:58;4.03;;;2.60;;
9447;SDS011;4762;48.128;11.376;2023-05-13T12:09:03;2.90;;;2.20;;
9447;SDS011;4762;48.128;11.376;2023-05-13T12:11:06;6.30;;;2.93;;
9447;SDS011;4762;48.128;11.376;2023-05-13T12:13:08;5.70;;;2.23;;
9447;SDS011;4762;48.128;11.376;2023-05-13T12:15:11;2.90;;;1.77;;
9447;SDS011;4762;48.128;11.376;2023-05-13T12:17:12;4.83;;;2.57;;
9447;SDS011;4762;48.128;11.376;2023-05-13T12:19:15;2.20;;;1.70;;
9447;SDS011;4762;48.128;11.376;2023-05-13T12:21:17;2.93;;;2.03;;
9447;SDS011;4762;48.128;11.376;2023-05-13T12:23:19;3.33;;;2.27;;
9447;SDS011;4762;48.128;11.376;2023-05-13T12:27:34;7.03;;;3.60;;
9447;SDS011;4762;48.128;11.376;2023-05-13T12:29:38;2.90;;;1.97;;
9447;SDS011;4762;48.128;11.376;2023-05-13T12:31:41;4.07;;;2.30;;
9447;SDS011;4762;48.128;11.376;2023-05-13T12:33:43;2.93;;;2.40;;
9447;SDS011;4762;48.128;11.376;2023-05-13T12:35:46;4.50;;;2.63;;
9447;SDS011;4762;48.128;11.376;2023-05-13T12:37:57;4.50;;;2.13;;
9447;SDS011;4762;48.128;11.376;2023-05-13T12:39:50;3.07;;;2.03;;
9447;SDS011;4762;48.128;11.376;2023-05-13T12:41:52;6.40;;;2.00;;
9447;SDS011;4762;48.128;11.376;2023-05-13T12:43:59;2.73;;;1.80;;
9447;SDS011;4762;48.128;11.376;2023-05-13T12:46:00;3.47;;;2.20;;
9447;SDS011;4762;48.128;11.376;2023-05-13T12:48:03;3.77;;;2.40;;
9447;SDS011;4762;48.128;11.376;2023-05-13T12:50:06;2.83;;;1.90;;
9447;SDS011;4762;48.128;11.376;2023-05-13T12:52:10;2.17;;;1.53;;
9447;SDS011;4762;48.128;11.376;2023-05-13T12:54:12;3.00;;;2.10;;
9447;SDS011;4762;48.128;11.376;2023-05-13T12:56:15;2.67;;;1.40;;